• Join FlightAware (Why Join?)
  • Login
  • US Flag 
10:42AM EDT


 

Airport Tracker/Info


-or-


 

Live Flight TrackerFlight Track Log ✈ ASQ5717 ✈ 19-Apr-2013 ✈ KBTV - KIAD

Flight Track Log - Related Links

Times and Time Zones

All times are in EDT time to prevent confusion due to time zone crossing. See the ASQ5717 flight status page for this flight to view local times or setup timezone preferences in your user account.

Time Position Orientation Groundspeed Altitude Reporting Facility
EDT Latitude Longitude Course Direction KTS MPH feet Rate Location/Type
03:31PM 44.4322 -73.1319 195° South 161 185 3,100  Level Boston Center
03:32PM 44.3842 -73.1458 192° South 155 178 6,200 2,280 Climbing Boston Center
03:33PM 44.3361 -73.1658 197° South 168 193 7,700 1,440 Climbing Boston Center
03:34PM 44.1306 -73.2761 195° South  Level FlightAware Approximate
03:34PM 44.2756 -73.1911 197° South 209 241 9,200  Level Boston Center
03:35PM 44.0463 -73.3068 194° South  Level FlightAware Approximate
03:35PM 44.2150 -73.2164 197° South 247 284 11,000  Level Boston Center
03:36PM 43.9617 -73.3350 193° South  Level FlightAware Approximate
03:36PM 44.1378 -73.2472 196° South 273 314 12,100  Level Boston Center
03:37PM 43.8773 -73.3648 195° South  Level FlightAware Approximate
03:37PM 44.0725 -73.3186 218° Southwest 292 336 13,200  Level Boston Center
03:38PM 44.0094 -73.3983 222° Southwest 310 357 14,400 1,140 Climbing Boston Center
03:39PM 43.9461 -73.4839 224° Southwest 315 362 15,600 1,200 Climbing Boston Center
03:40PM 43.8767 -73.5489 214° Southwest 315 362 16,800 1,320 Climbing Boston Center
03:41PM 43.7869 -73.5703 190° South 310 357 18,300 1,380 Climbing Boston Center
03:42PM 43.6908 -73.5944 190° South 321 369 19,600 960 Climbing Boston Center
03:43PM 43.6114 -73.6100 188° South 321 369 20,300 600 Climbing Boston Center
03:44PM 43.5175 -73.6311 189° South 332 382 20,900 660 Climbing Boston Center
03:45PM 43.4236 -73.6492 188° South 338 389 21,700 660 Climbing Boston Center
03:46PM 43.3275 -73.6758 191° South 350 403 22,300 600 Climbing Boston Center
03:47PM 43.2314 -73.6967 189° South 355 409 23,000 720 Climbing Boston Center
03:48PM 43.1225 -73.7231 190° South 355 409 23,800 720 Climbing Boston Center
03:49PM 43.0244 -73.7436 189° South 355 409 24,500 600 Climbing Boston Center
03:50PM 42.9303 -73.7644 189° South 355 409 25,100 540 Climbing Boston Center
03:51PM 42.8300 -73.7878 190° South 355 409 25,600 480 Climbing Boston Center
03:52PM 42.7319 -73.8139 191° South 360 414 26,100 480 Climbing Boston Center
03:53PM 42.6375 -73.8569 199° South 360 414 26,600 480 Climbing Boston Center
03:54PM 42.5578 -73.8917 198° South 354 407 27,100 420 Climbing Boston Center
03:56PM 42.4636 -73.9344 199° South 354 407 27,600 480 Climbing Boston Center
03:57PM 42.3503 -73.9881 199° South 354 407 28,200 480 Climbing Boston Center
03:58PM 42.2539 -74.0278 197° South 360 414 28,700 480 Climbing Boston Center
03:59PM 42.1367 -74.0639 193° South 360 414 29,300 540 Climbing Boston Center
04:00PM 42.0422 -74.1033 197° South 360 414 29,800 240 Climbing Boston Center
04:01PM 41.8936 -74.1650 197° South 373 429 30,000 60 Climbing New York Center
04:02PM 41.7944 -74.2097 199° South 373 429 30,000  Level New York Center
04:03PM 41.6933 -74.2519 197° South 373 429 30,000  Level New York Center
04:04PM 41.5900 -74.2964 198° South 383 441 30,000  Level New York Center
04:05PM 41.4844 -74.3433 198° South 383 441 30,000 -300 Level New York Center
04:06PM 41.3964 -74.4300 216° Southwest 383 441 29,500 -660 Descending New York Center
04:07PM 41.2992 -74.4825 202° Southwest 400 460 28,800 -720 Descending New York Center
04:08PM 41.1856 -74.5122 191° South 414 476 28,200 -660 Descending New York Center
04:09PM 41.0700 -74.5442 192° South 420 483 27,500 -720 Descending New York Center
04:10PM 40.9564 -74.5792 193° South 420 483 26,800 -720 Descending New York Center
04:11PM 40.8742 -74.6761 222° Southwest 400 460 26,100 -420 Descending New York Center
04:12PM 40.8236 -74.8131 244° Southwest 403 464 26,000 -60 Descending New York Center
04:13PM 40.7650 -74.9411 239° Southwest 410 472 26,000  Level New York Center
04:14PM 40.7042 -75.0717 238° Southwest 415 478 26,000  Level New York Center
04:15PM 40.6475 -75.1939 239° Southwest 410 472 26,000 -60 Level New York Center
04:16PM 40.5886 -75.3183 238° Southwest 405 466 25,900 -60 Descending New York Center
04:17PM 40.5250 -75.4536 238° Southwest 405 466 25,900 -720 Level New York Center
04:18PM 40.4658 -75.5778 238° Southwest 405 466 24,500 -1,620 Descending New York Center
04:19PM 40.4064 -75.7017 238° Southwest 405 466 22,700 -1,740 Descending New York Center
04:20PM 40.3517 -75.8175 238° Southwest 399 459 21,000 -1,380 Descending New York Center
04:21PM 40.2969 -75.9225 236° Southwest 393 452 20,000 -540 Descending New York Center
04:22PM 40.2419 -76.0381 238° Southwest 393 452 20,000 -60 Level New York Center
04:23PM 40.1867 -76.1533 238° Southwest 383 441 19,900 -540 Descending New York Center
04:24PM 40.1267 -76.2792 238° Southwest 376 433 19,000 -900 Descending New York Center
04:26PM 40.0603 -76.4026 246° West  Level FlightAware Approximate
04:33PM 39.7009 -77.1787 239° Southwest  Level FlightAware Approximate
04:34PM 39.6438 -77.2843 229° Southwest  Level FlightAware Approximate
04:35PM 39.5635 -77.3333 180° South  Level FlightAware Approximate
04:36PM 39.4642 -77.3429 185° South  Level FlightAware Approximate
04:37PM 39.3592 -77.3500 180° South  Level FlightAware Approximate
04:38PM 39.2540 -77.3500 180° South  Level FlightAware Approximate
04:39PM 39.1488 -77.3500 180° South  Level FlightAware Approximate
04:40PM 39.0435 -77.3500 180° South  Level FlightAware Approximate
04:41PM 38.9383 -77.3500 180° South  Level FlightAware Approximate
04:42PM 38.9474 -77.4599 180° South  Level Estimated
04:43PM 38.9474 -77.4599 180° South  Level Estimated
04:44PM 38.9474 -77.4599 345° North  Level Estimated
04:45PM 38.9474 -77.4599 339° North  Level Estimated
04:46PM 38.9474 -77.4599 349° North  Level Estimated
04:47PM 38.9474 -77.4599 349° North  Level Estimated
04:48PM 38.9474 -77.4599 349° North  Level Estimated
04:49PM 38.9474 -77.4599 349° North  Level Estimated
04:50PM 38.9474 -77.4599 349° North  Level Estimated
04:51PM 38.9474 -77.4599 349° North  Level Estimated
04:52PM 38.9474 -77.4599 349° North  Level Estimated
04:53PM 38.9474 -77.4599 349° North  Level Estimated
04:54PM 38.9474 -77.4599 349° North  Level Estimated
04:55PM 38.9474 -77.4599 349° North  Level Estimated
04:56PM 38.9474 -77.4599 349° North  Level Estimated
04:57PM 38.9474 -77.4599 349° North  Level Estimated
04:58PM 38.9474 -77.4599 349° North  Level Estimated
04:59PM 38.9474 -77.4599 349° North  Level Estimated
05:00PM 38.9474 -77.4599 349° North  Level Estimated
05:01PM 38.9474 -77.4599 349° North  Level Estimated
05:02PM 38.9474 -77.4599 349° North  Level Estimated
05:03PM 38.9474 -77.4599 349° North  Level Estimated